sensor_id;sensor_type;location;lat;lon;timestamp;P1;durP1;ratioP1;P2;durP2;ratioP2
22679;SDS011;11507;44.858;10.374;2023-07-13T00:00:25;10.43;;;2.38;;
22679;SDS011;11507;44.858;10.374;2023-07-13T00:02:58;12.57;;;1.90;;
22679;SDS011;11507;44.858;10.374;2023-07-13T00:05:24;6.50;;;1.92;;
22679;SDS011;11507;44.858;10.374;2023-07-13T00:07:51;3.47;;;1.65;;
22679;SDS011;11507;44.858;10.374;2023-07-13T00:10:22;11.32;;;2.03;;
22679;SDS011;11507;44.858;10.374;2023-07-13T00:12:51;7.20;;;2.00;;
22679;SDS011;11507;44.858;10.374;2023-07-13T00:15:23;6.18;;;1.80;;
22679;SDS011;11507;44.858;10.374;2023-07-13T00:17:52;6.13;;;1.83;;
22679;SDS011;11507;44.858;10.374;2023-07-13T00:20:20;6.15;;;1.85;;
22679;SDS011;11507;44.858;10.374;2023-07-13T00:22:48;5.13;;;1.50;;
22679;SDS011;11507;44.858;10.374;2023-07-13T00:25:15;6.28;;;1.60;;
22679;SDS011;11507;44.858;10.374;2023-07-13T00:27:42;6.05;;;1.48;;
22679;SDS011;11507;44.858;10.374;2023-07-13T00:30:12;5.38;;;1.40;;
22679;SDS011;11507;44.858;10.374;2023-07-13T00:32:38;4.68;;;1.30;;
22679;SDS011;11507;44.858;10.374;2023-07-13T00:35:05;6.97;;;1.70;;
22679;SDS011;11507;44.858;10.374;2023-07-13T00:37:37;2.95;;;1.30;;
22679;SDS011;11507;44.858;10.374;2023-07-13T00:40:03;4.38;;;1.40;;
22679;SDS011;11507;44.858;10.374;2023-07-13T00:42:31;3.38;;;1.30;;
22679;SDS011;11507;44.858;10.374;2023-07-13T00:45:04;7.28;;;1.80;;
22679;SDS011;11507;44.858;10.374;2023-07-13T00:47:32;5.10;;;1.42;;
22679;SDS011;11507;44.858;10.374;2023-07-13T00:50:00;3.53;;;1.50;;
22679;SDS011;11507;44.858;10.374;2023-07-13T00:52:27;5.35;;;1.95;;
22679;SDS011;11507;44.858;10.374;2023-07-13T00:54:57;6.75;;;1.88;;
22679;SDS011;11507;44.858;10.374;2023-07-13T00:57:23;10.25;;;1.70;;
22679;SDS011;11507;44.858;10.374;2023-07-13T00:59:52;5.55;;;1.70;;
22679;SDS011;11507;44.858;10.374;2023-07-13T01:02:25;5.35;;;1.30;;
22679;SDS011;11507;44.858;10.374;2023-07-13T01:04:55;4.18;;;1.63;;
22679;SDS011;11507;44.858;10.374;2023-07-13T01:07:22;5.63;;;1.50;;
22679;SDS011;11507;44.858;10.374;2023-07-13T01:09:48;6.57;;;1.70;;
22679;SDS011;11507;44.858;10.374;2023-07-13T01:12:15;4.43;;;2.13;;
22679;SDS011;11507;44.858;10.374;2023-07-13T01:14:40;6.88;;;1.98;;
22679;SDS011;11507;44.858;10.374;2023-07-13T01:17:10;4.82;;;1.60;;
22679;SDS011;11507;44.858;10.374;2023-07-13T01:19:46;7.50;;;1.88;;
22679;SDS011;11507;44.858;10.374;2023-07-13T01:22:14;5.15;;;1.80;;
22679;SDS011;11507;44.858;10.374;2023-07-13T01:24:43;6.90;;;1.77;;
22679;SDS011;11507;44.858;10.374;2023-07-13T01:27:15;5.82;;;1.70;;
22679;SDS011;11507;44.858;10.374;2023-07-13T01:29:45;4.53;;;1.80;;
22679;SDS011;11507;44.858;10.374;2023-07-13T01:32:15;5.45;;;1.63;;
22679;SDS011;11507;44.858;10.374;2023-07-13T01:34:50;6.45;;;1.77;;
22679;SDS011;11507;44.858;10.374;2023-07-13T01:37:21;3.80;;;1.63;;
22679;SDS011;11507;44.858;10.374;2023-07-13T01:39:50;3.72;;;1.75;;
22679;SDS011;11507;44.858;10.374;2023-07-13T01:42:17;5.07;;;1.73;;
22679;SDS011;11507;44.858;10.374;2023-07-13T01:44:43;7.28;;;1.58;;
22679;SDS011;11507;44.858;10.374;2023-07-13T01:47:12;3.92;;;1.80;;
22679;SDS011;11507;44.858;10.374;2023-07-13T01:49:38;5.60;;;1.67;;
22679;SDS011;11507;44.858;10.374;2023-07-13T01:52:08;4.90;;;1.70;;
22679;SDS011;11507;44.858;10.374;2023-07-13T01:54:37;4.85;;;1.77;;
22679;SDS011;11507;44.858;10.374;2023-07-13T01:57:03;8.65;;;2.00;;
22679;SDS011;11507;44.858;10.374;2023-07-13T01:59:31;7.20;;;1.77;;
22679;SDS011;11507;44.858;10.374;2023-07-13T02:02:00;6.72;;;1.83;;
22679;SDS011;11507;44.858;10.374;2023-07-13T02:04:27;6.95;;;1.63;;
22679;SDS011;11507;44.858;10.374;2023-07-13T02:06:53;7.40;;;1.65;;
22679;SDS011;11507;44.858;10.374;2023-07-13T02:09:21;5.75;;;1.95;;
22679;SDS011;11507;44.858;10.374;2023-07-13T02:11:48;5.50;;;1.80;;
22679;SDS011;11507;44.858;10.374;2023-07-13T02:14:14;6.50;;;1.60;;
22679;SDS011;11507;44.858;10.374;2023-07-13T02:16:42;4.95;;;1.83;;
22679;SDS011;11507;44.858;10.374;2023-07-13T02:19:10;5.03;;;2.40;;
22679;SDS011;11507;44.858;10.374;2023-07-13T02:21:35;4.38;;;1.75;;
22679;SDS011;11507;44.858;10.374;2023-07-13T02:24:01;5.20;;;1.90;;
22679;SDS011;11507;44.858;10.374;2023-07-13T02:26:27;5.85;;;1.80;;
22679;SDS011;11507;44.858;10.374;2023-07-13T02:28:53;3.70;;;1.77;;
22679;SDS011;11507;44.858;10.374;2023-07-13T02:31:21;7.68;;;1.85;;
22679;SDS011;11507;44.858;10.374;2023-07-13T02:33:46;4.57;;;2.00;;
22679;SDS011;11507;44.858;10.374;2023-07-13T02:36:12;7.18;;;2.30;;
22679;SDS011;11507;44.858;10.374;2023-07-13T02:38:44;5.07;;;2.00;;
22679;SDS011;11507;44.858;10.374;2023-07-13T02:41:12;7.03;;;2.08;;
22679;SDS011;11507;44.858;10.374;2023-07-13T02:43:38;5.40;;;2.13;;
22679;SDS011;11507;44.858;10.374;2023-07-13T02:46:08;6.13;;;2.08;;
22679;SDS011;11507;44.858;10.374;2023-07-13T02:48:38;8.07;;;2.30;;
22679;SDS011;11507;44.858;10.374;2023-07-13T02:51:09;5.93;;;1.92;;
22679;SDS011;11507;44.858;10.374;2023-07-13T02:53:35;8.68;;;1.92;;
22679;SDS011;11507;44.858;10.374;2023-07-13T02:56:02;6.97;;;2.28;;
22679;SDS011;11507;44.858;10.374;2023-07-13T02:58:30;5.93;;;2.53;;
22679;SDS011;11507;44.858;10.374;2023-07-13T03:00:56;5.95;;;2.20;;
22679;SDS011;11507;44.858;10.374;2023-07-13T03:03:23;5.13;;;2.33;;
22679;SDS011;11507;44.858;10.374;2023-07-13T03:05:57;5.97;;;2.58;;
22679;SDS011;11507;44.858;10.374;2023-07-13T03:08:29;5.53;;;2.83;;
22679;SDS011;11507;44.858;10.374;2023-07-13T03:11:01;6.47;;;2.80;;
22679;SDS011;11507;44.858;10.374;2023-07-13T03:13:30;4.10;;;2.70;;
22679;SDS011;11507;44.858;10.374;2023-07-13T03:15:57;6.03;;;2.95;;
22679;SDS011;11507;44.858;10.374;2023-07-13T03:18:23;7.10;;;3.42;;
22679;SDS011;11507;44.858;10.374;2023-07-13T03:20:53;6.45;;;3.38;;
22679;SDS011;11507;44.858;10.374;2023-07-13T03:23:24;7.53;;;3.97;;
22679;SDS011;11507;44.858;10.374;2023-07-13T03:26:00;10.18;;;4.22;;
22679;SDS011;11507;44.858;10.374;2023-07-13T03:31:05;7.75;;;4.07;;
22679;SDS011;11507;44.858;10.374;2023-07-13T03:33:35;9.43;;;4.35;;
22679;SDS011;11507;44.858;10.374;2023-07-13T03:36:06;10.98;;;4.40;;
22679;SDS011;11507;44.858;10.374;2023-07-13T03:38:39;14.40;;;4.32;;
22679;SDS011;11507;44.858;10.374;2023-07-13T03:41:09;7.35;;;3.75;;
22679;SDS011;11507;44.858;10.374;2023-07-13T03:43:36;12.10;;;4.43;;
22679;SDS011;11507;44.858;10.374;2023-07-13T03:46:08;9.85;;;4.32;;
22679;SDS011;11507;44.858;10.374;2023-07-13T03:48:34;8.60;;;4.47;;
22679;SDS011;11507;44.858;10.374;2023-07-13T03:51:01;7.43;;;3.95;;
22679;SDS011;11507;44.858;10.374;2023-07-13T03:53:29;7.28;;;4.18;;
22679;SDS011;11507;44.858;10.374;2023-07-13T03:55:55;6.47;;;3.50;;
22679;SDS011;11507;44.858;10.374;2023-07-13T03:58:34;10.43;;;5.13;;
22679;SDS011;11507;44.858;10.374;2023-07-13T04:01:15;10.70;;;4.72;;
22679;SDS011;11507;44.858;10.374;2023-07-13T04:03:45;7.72;;;4.05;;
22679;SDS011;11507;44.858;10.374;2023-07-13T04:09:11;7.55;;;3.60;;
22679;SDS011;11507;44.858;10.374;2023-07-13T04:11:40;7.15;;;3.42;;
22679;SDS011;11507;44.858;10.374;2023-07-13T04:14:06;8.50;;;4.25;;
22679;SDS011;11507;44.858;10.374;2023-07-13T04:16:36;10.18;;;4.38;;
22679;SDS011;11507;44.858;10.374;2023-07-13T04:19:02;10.48;;;4.38;;
22679;SDS011;11507;44.858;10.374;2023-07-13T04:21:34;7.93;;;4.35;;
22679;SDS011;11507;44.858;10.374;2023-07-13T04:24:00;9.25;;;4.60;;
22679;SDS011;11507;44.858;10.374;2023-07-13T04:26:26;12.02;;;4.25;;
22679;SDS011;11507;44.858;10.374;2023-07-13T04:28:53;8.82;;;4.00;;
22679;SDS011;11507;44.858;10.374;2023-07-13T04:31:19;7.70;;;3.78;;
22679;SDS011;11507;44.858;10.374;2023-07-13T04:33:45;8.63;;;3.80;;
22679;SDS011;11507;44.858;10.374;2023-07-13T04:36:11;7.97;;;4.25;;
22679;SDS011;11507;44.858;10.374;2023-07-13T04:38:37;11.57;;;3.92;;
22679;SDS011;11507;44.858;10.374;2023-07-13T04:41:04;14.80;;;4.15;;
22679;SDS011;11507;44.858;10.374;2023-07-13T04:43:31;8.73;;;3.78;;
22679;SDS011;11507;44.858;10.374;2023-07-13T04:46:02;9.68;;;3.78;;
22679;SDS011;11507;44.858;10.374;2023-07-13T04:48:35;10.55;;;4.00;;
22679;SDS011;11507;44.858;10.374;2023-07-13T04:51:00;7.10;;;4.00;;
22679;SDS011;11507;44.858;10.374;2023-07-13T04:53:27;6.75;;;3.67;;
22679;SDS011;11507;44.858;10.374;2023-07-13T04:55:54;7.22;;;3.10;;
22679;SDS011;11507;44.858;10.374;2023-07-13T04:58:21;8.52;;;3.30;;
22679;SDS011;11507;44.858;10.374;2023-07-13T05:00:47;9.00;;;4.03;;
22679;SDS011;11507;44.858;10.374;2023-07-13T05:03:17;10.60;;;3.63;;
22679;SDS011;11507;44.858;10.374;2023-07-13T05:05:54;11.32;;;4.20;;
22679;SDS011;11507;44.858;10.374;2023-07-13T05:08:24;9.05;;;3.75;;
22679;SDS011;11507;44.858;10.374;2023-07-13T05:10:50;11.20;;;3.75;;
22679;SDS011;11507;44.858;10.374;2023-07-13T05:13:20;10.80;;;3.83;;
22679;SDS011;11507;44.858;10.374;2023-07-13T05:16:07;9.18;;;4.50;;
22679;SDS011;11507;44.858;10.374;2023-07-13T05:18:34;9.90;;;4.07;;
22679;SDS011;11507;44.858;10.374;2023-07-13T05:23:27;10.07;;;4.43;;
22679;SDS011;11507;44.858;10.374;2023-07-13T05:25:54;9.02;;;3.83;;
22679;SDS011;11507;44.858;10.374;2023-07-13T05:28:21;7.68;;;3.67;;
22679;SDS011;11507;44.858;10.374;2023-07-13T05:30:49;8.50;;;3.80;;
22679;SDS011;11507;44.858;10.374;2023-07-13T05:33:18;10.07;;;4.00;;
22679;SDS011;11507;44.858;10.374;2023-07-13T05:35:44;9.70;;;3.45;;
22679;SDS011;11507;44.858;10.374;2023-07-13T05:38:10;10.73;;;3.72;;
22679;SDS011;11507;44.858;10.374;2023-07-13T05:40:37;7.25;;;3.60;;
22679;SDS011;11507;44.858;10.374;2023-07-13T05:43:03;8.68;;;3.55;;
22679;SDS011;11507;44.858;10.374;2023-07-13T05:45:30;6.82;;;3.92;;
22679;SDS011;11507;44.858;10.374;2023-07-13T05:47:56;7.60;;;3.60;;
22679;SDS011;11507;44.858;10.374;2023-07-13T05:50:29;12.60;;;4.20;;
22679;SDS011;11507;44.858;10.374;2023-07-13T05:52:55;7.53;;;3.33;;
22679;SDS011;11507;44.858;10.374;2023-07-13T05:55:21;8.30;;;3.85;;
22679;SDS011;11507;44.858;10.374;2023-07-13T05:57:47;8.15;;;3.35;;
22679;SDS011;11507;44.858;10.374;2023-07-13T06:00:16;8.55;;;3.35;;
22679;SDS011;11507;44.858;10.374;2023-07-13T06:05:12;11.10;;;3.60;;
22679;SDS011;11507;44.858;10.374;2023-07-13T06:07:39;11.88;;;3.88;;
22679;SDS011;11507;44.858;10.374;2023-07-13T06:10:06;6.90;;;3.15;;
22679;SDS011;11507;44.858;10.374;2023-07-13T06:12:32;11.77;;;3.38;;
22679;SDS011;11507;44.858;10.374;2023-07-13T06:14:58;10.95;;;3.53;;
22679;SDS011;11507;44.858;10.374;2023-07-13T06:17:24;8.52;;;3.47;;
22679;SDS011;11507;44.858;10.374;2023-07-13T06:19:49;9.85;;;3.63;;
22679;SDS011;11507;44.858;10.374;2023-07-13T06:22:21;6.95;;;3.25;;
22679;SDS011;11507;44.858;10.374;2023-07-13T06:24:48;8.15;;;3.42;;
22679;SDS011;11507;44.858;10.374;2023-07-13T06:27:16;8.38;;;3.55;;
22679;SDS011;11507;44.858;10.374;2023-07-13T06:29:42;6.20;;;3.35;;
22679;SDS011;11507;44.858;10.374;2023-07-13T06:32:10;10.35;;;4.35;;
22679;SDS011;11507;44.858;10.374;2023-07-13T06:34:36;12.10;;;4.25;;
22679;SDS011;11507;44.858;10.374;2023-07-13T06:37:09;8.05;;;4.50;;
22679;SDS011;11507;44.858;10.374;2023-07-13T06:39:36;12.20;;;5.32;;
22679;SDS011;11507;44.858;10.374;2023-07-13T06:42:02;12.52;;;4.20;;
22679;SDS011;11507;44.858;10.374;2023-07-13T06:44:29;11.40;;;3.83;;
22679;SDS011;11507;44.858;10.374;2023-07-13T06:46:55;9.98;;;4.00;;
22679;SDS011;11507;44.858;10.374;2023-07-13T06:49:21;15.70;;;4.95;;
22679;SDS011;11507;44.858;10.374;2023-07-13T06:51:47;10.10;;;5.68;;
22679;SDS011;11507;44.858;10.374;2023-07-13T06:54:14;12.57;;;5.75;;
22679;SDS011;11507;44.858;10.374;2023-07-13T06:56:41;13.77;;;5.30;;
22679;SDS011;11507;44.858;10.374;2023-07-13T06:59:07;12.43;;;5.32;;
22679;SDS011;11507;44.858;10.374;2023-07-13T07:01:35;9.77;;;5.53;;
22679;SDS011;11507;44.858;10.374;2023-07-13T07:04:01;8.43;;;5.20;;
22679;SDS011;11507;44.858;10.374;2023-07-13T07:06:28;12.52;;;5.63;;
22679;SDS011;11507;44.858;10.374;2023-07-13T07:08:54;9.80;;;4.75;;
22679;SDS011;11507;44.858;10.374;2023-07-13T07:11:21;11.55;;;5.20;;
22679;SDS011;11507;44.858;10.374;2023-07-13T07:13:50;11.80;;;4.70;;
22679;SDS011;11507;44.858;10.374;2023-07-13T07:16:17;9.65;;;5.00;;
22679;SDS011;11507;44.858;10.374;2023-07-13T07:18:44;9.40;;;5.03;;
22679;SDS011;11507;44.858;10.374;2023-07-13T07:21:10;8.55;;;4.53;;
22679;SDS011;11507;44.858;10.374;2023-07-13T07:23:37;8.90;;;4.30;;
22679;SDS011;11507;44.858;10.374;2023-07-13T07:26:03;12.82;;;5.32;;
22679;SDS011;11507;44.858;10.374;2023-07-13T07:28:29;9.57;;;4.90;;
22679;SDS011;11507;44.858;10.374;2023-07-13T07:30:56;8.63;;;5.25;;
22679;SDS011;11507;44.858;10.374;2023-07-13T07:33:24;11.07;;;5.38;;
22679;SDS011;11507;44.858;10.374;2023-07-13T07:35:53;14.38;;;5.05;;
22679;SDS011;11507;44.858;10.374;2023-07-13T07:38:19;10.70;;;5.50;;
22679;SDS011;11507;44.858;10.374;2023-07-13T07:40:52;12.95;;;5.18;;
22679;SDS011;11507;44.858;10.374;2023-07-13T07:43:19;15.00;;;5.68;;
22679;SDS011;11507;44.858;10.374;2023-07-13T07:45:45;10.68;;;4.68;;
22679;SDS011;11507;44.858;10.374;2023-07-13T07:48:17;10.38;;;5.20;;
22679;SDS011;11507;44.858;10.374;2023-07-13T07:50:43;10.95;;;5.32;;
22679;SDS011;11507;44.858;10.374;2023-07-13T07:53:10;10.27;;;5.78;;
22679;SDS011;11507;44.858;10.374;2023-07-13T07:55:37;11.68;;;5.28;;
22679;SDS011;11507;44.858;10.374;2023-07-13T07:58:03;8.60;;;4.82;;
22679;SDS011;11507;44.858;10.374;2023-07-13T08:00:29;13.35;;;5.32;;
22679;SDS011;11507;44.858;10.374;2023-07-13T08:03:00;10.48;;;4.90;;
22679;SDS011;11507;44.858;10.374;2023-07-13T08:05:28;18.23;;;5.00;;
22679;SDS011;11507;44.858;10.374;2023-07-13T08:07:56;9.13;;;5.03;;
22679;SDS011;11507;44.858;10.374;2023-07-13T08:10:22;11.60;;;5.00;;
22679;SDS011;11507;44.858;10.374;2023-07-13T08:12:50;14.68;;;5.60;;
22679;SDS011;11507;44.858;10.374;2023-07-13T08:15:17;14.68;;;5.60;;
22679;SDS011;11507;44.858;10.374;2023-07-13T08:20:15;12.10;;;5.63;;
22679;SDS011;11507;44.858;10.374;2023-07-13T08:22:41;9.70;;;5.28;;
22679;SDS011;11507;44.858;10.374;2023-07-13T08:25:07;14.63;;;5.97;;
22679;SDS011;11507;44.858;10.374;2023-07-13T08:27:35;13.30;;;5.80;;
22679;SDS011;11507;44.858;10.374;2023-07-13T08:32:33;12.68;;;5.60;;
22679;SDS011;11507;44.858;10.374;2023-07-13T08:35:02;14.73;;;5.88;;
22679;SDS011;11507;44.858;10.374;2023-07-13T08:37:30;14.70;;;5.38;;
22679;SDS011;11507;44.858;10.374;2023-07-13T08:45:06;13.85;;;7.55;;
22679;SDS011;11507;44.858;10.374;2023-07-13T08:47:38;15.23;;;6.63;;
22679;SDS011;11507;44.858;10.374;2023-07-13T08:50:11;13.48;;;6.05;;
22679;SDS011;11507;44.858;10.374;2023-07-13T08:52:40;13.70;;;5.93;;
22679;SDS011;11507;44.858;10.374;2023-07-13T08:55:18;12.32;;;5.90;;
22679;SDS011;11507;44.858;10.374;2023-07-13T08:57:48;16.48;;;6.13;;
22679;SDS011;11507;44.858;10.374;2023-07-13T09:00:21;16.58;;;6.28;;
22679;SDS011;11507;44.858;10.374;2023-07-13T09:02:52;18.20;;;6.45;;
22679;SDS011;11507;44.858;10.374;2023-07-13T09:05:33;11.48;;;5.90;;
22679;SDS011;11507;44.858;10.374;2023-07-13T09:16:40;12.25;;;6.55;;
22679;SDS011;11507;44.858;10.374;2023-07-13T09:19:07;14.80;;;6.40;;
22679;SDS011;11507;44.858;10.374;2023-07-13T09:21:39;13.77;;;5.75;;
22679;SDS011;11507;44.858;10.374;2023-07-13T09:26:57;8.20;;;4.82;;
22679;SDS011;11507;44.858;10.374;2023-07-13T09:29:28;9.50;;;4.65;;
22679;SDS011;11507;44.858;10.374;2023-07-13T09:32:04;10.70;;;5.38;;
22679;SDS011;11507;44.858;10.374;2023-07-13T09:34:33;12.40;;;4.70;;
22679;SDS011;11507;44.858;10.374;2023-07-13T09:37:00;9.68;;;4.80;;
22679;SDS011;11507;44.858;10.374;2023-07-13T09:39:35;12.52;;;4.82;;
22679;SDS011;11507;44.858;10.374;2023-07-13T09:42:07;11.35;;;4.90;;
22679;SDS011;11507;44.858;10.374;2023-07-13T09:44:42;11.55;;;4.78;;
22679;SDS011;11507;44.858;10.374;2023-07-13T09:47:16;9.65;;;4.80;;
22679;SDS011;11507;44.858;10.374;2023-07-13T09:49:59;10.63;;;4.85;;
22679;SDS011;11507;44.858;10.374;2023-07-13T09:52:46;9.00;;;4.60;;
22679;SDS011;11507;44.858;10.374;2023-07-13T09:58:15;10.65;;;5.22;;
22679;SDS011;11507;44.858;10.374;2023-07-13T10:00:43;11.32;;;5.30;;
22679;SDS011;11507;44.858;10.374;2023-07-13T10:03:28;11.95;;;5.35;;
22679;SDS011;11507;44.858;10.374;2023-07-13T10:06:15;11.10;;;4.60;;
22679;SDS011;11507;44.858;10.374;2023-07-13T10:08:44;8.57;;;5.03;;
22679;SDS011;11507;44.858;10.374;2023-07-13T10:13:52;10.82;;;5.18;;
22679;SDS011;11507;44.858;10.374;2023-07-13T10:16:36;8.18;;;4.35;;
22679;SDS011;11507;44.858;10.374;2023-07-13T10:19:45;11.77;;;5.03;;
22679;SDS011;11507;44.858;10.374;2023-07-13T10:21:58;10.32;;;4.50;;
22679;SDS011;11507;44.858;10.374;2023-07-13T10:24:32;9.23;;;4.78;;
22679;SDS011;11507;44.858;10.374;2023-07-13T10:27:19;7.20;;;4.78;;
22679;SDS011;11507;44.858;10.374;2023-07-13T10:32:58;9.52;;;5.00;;
22679;SDS011;11507;44.858;10.374;2023-07-13T10:35:25;11.45;;;5.32;;
22679;SDS011;11507;44.858;10.374;2023-07-13T10:37:56;8.98;;;4.72;;
22679;SDS011;11507;44.858;10.374;2023-07-13T10:43:25;12.50;;;5.88;;
22679;SDS011;11507;44.858;10.374;2023-07-13T10:46:05;9.73;;;5.60;;
22679;SDS011;11507;44.858;10.374;2023-07-13T10:48:35;11.02;;;5.68;;
22679;SDS011;11507;44.858;10.374;2023-07-13T10:51:03;15.90;;;6.35;;
22679;SDS011;11507;44.858;10.374;2023-07-13T10:53:33;10.88;;;5.63;;
22679;SDS011;11507;44.858;10.374;2023-07-13T10:56:05;8.82;;;5.22;;
22679;SDS011;11507;44.858;10.374;2023-07-13T10:58:40;11.00;;;5.70;;
22679;SDS011;11507;44.858;10.374;2023-07-13T11:01:09;9.65;;;5.32;;
22679;SDS011;11507;44.858;10.374;2023-07-13T11:13:57;9.60;;;5.30;;
22679;SDS011;11507;44.858;10.374;2023-07-13T11:16:37;13.38;;;6.40;;
22679;SDS011;11507;44.858;10.374;2023-07-13T11:27:44;13.63;;;7.10;;
22679;SDS011;11507;44.858;10.374;2023-07-13T11:33:10;15.10;;;6.35;;
22679;SDS011;11507;44.858;10.374;2023-07-13T11:38:24;12.73;;;5.85;;
22679;SDS011;11507;44.858;10.374;2023-07-13T11:43:44;16.45;;;7.20;;
22679;SDS011;11507;44.858;10.374;2023-07-13T11:46:12;14.70;;;6.15;;
22679;SDS011;11507;44.858;10.374;2023-07-13T11:48:49;15.10;;;6.85;;
22679;SDS011;11507;44.858;10.374;2023-07-13T11:51:32;13.00;;;7.07;;
22679;SDS011;11507;44.858;10.374;2023-07-13T11:54:04;10.82;;;6.63;;
22679;SDS011;11507;44.858;10.374;2023-07-13T11:56:37;13.50;;;6.18;;
22679;SDS011;11507;44.858;10.374;2023-07-13T11:59:08;12.63;;;5.78;;
22679;SDS011;11507;44.858;10.374;2023-07-13T12:01:43;14.93;;;6.38;;
22679;SDS011;11507;44.858;10.374;2023-07-13T12:04:22;11.63;;;5.80;;
22679;SDS011;11507;44.858;10.374;2023-07-13T12:07:05;12.02;;;5.82;;
22679;SDS011;11507;44.858;10.374;2023-07-13T12:09:41;12.05;;;6.43;;
22679;SDS011;11507;44.858;10.374;2023-07-13T12:12:13;11.93;;;5.73;;
22679;SDS011;11507;44.858;10.374;2023-07-13T12:14:44;11.47;;;5.53;;
22679;SDS011;11507;44.858;10.374;2023-07-13T12:17:19;10.50;;;4.80;;
22679;SDS011;11507;44.858;10.374;2023-07-13T12:19:57;9.27;;;5.22;;
22679;SDS011;11507;44.858;10.374;2023-07-13T12:22:23;12.85;;;5.47;;
22679;SDS011;11507;44.858;10.374;2023-07-13T12:24:51;14.48;;;6.03;;
22679;SDS011;11507;44.858;10.374;2023-07-13T12:30:24;13.02;;;6.30;;
22679;SDS011;11507;44.858;10.374;2023-07-13T12:33:01;11.75;;;6.43;;
22679;SDS011;11507;44.858;10.374;2023-07-13T12:35:42;15.20;;;6.50;;
22679;SDS011;11507;44.858;10.374;2023-07-13T12:38:16;11.93;;;7.18;;
22679;SDS011;11507;44.858;10.374;2023-07-13T12:40:44;12.73;;;6.30;;
22679;SDS011;11507;44.858;10.374;2023-07-13T12:43:19;11.60;;;6.00;;
22679;SDS011;11507;44.858;10.374;2023-07-13T12:48:51;15.57;;;7.10;;
22679;SDS011;11507;44.858;10.374;2023-07-13T12:51:22;13.00;;;6.07;;
22679;SDS011;11507;44.858;10.374;2023-07-13T12:54:05;11.68;;;6.07;;
22679;SDS011;11507;44.858;10.374;2023-07-13T12:56:38;12.38;;;5.10;;
22679;SDS011;11507;44.858;10.374;2023-07-13T12:59:05;14.02;;;6.10;;
22679;SDS011;11507;44.858;10.374;2023-07-13T13:01:32;14.48;;;6.13;;
22679;SDS011;11507;44.858;10.374;2023-07-13T13:04:03;12.55;;;6.00;;
22679;SDS011;11507;44.858;10.374;2023-07-13T13:06:32;13.00;;;5.97;;
22679;SDS011;11507;44.858;10.374;2023-07-13T13:08:58;10.82;;;5.05;;
22679;SDS011;11507;44.858;10.374;2023-07-13T13:11:26;16.23;;;5.53;;
22679;SDS011;11507;44.858;10.374;2023-07-13T13:13:55;14.15;;;5.60;;
22679;SDS011;11507;44.858;10.374;2023-07-13T13:16:22;19.60;;;6.25;;
22679;SDS011;11507;44.858;10.374;2023-07-13T13:18:59;10.38;;;5.38;;
22679;SDS011;11507;44.858;10.374;2023-07-13T13:21:47;12.00;;;5.30;;
22679;SDS011;11507;44.858;10.374;2023-07-13T13:24:18;15.25;;;5.57;;
22679;SDS011;11507;44.858;10.374;2023-07-13T13:26:57;13.40;;;5.38;;
22679;SDS011;11507;44.858;10.374;2023-07-13T13:29:28;14.88;;;5.50;;
22679;SDS011;11507;44.858;10.374;2023-07-13T13:31:57;15.18;;;5.80;;
22679;SDS011;11507;44.858;10.374;2023-07-13T13:34:23;15.90;;;5.90;;
22679;SDS011;11507;44.858;10.374;2023-07-13T13:36:50;15.30;;;5.65;;
22679;SDS011;11507;44.858;10.374;2023-07-13T13:39:20;13.77;;;5.47;;
22679;SDS011;11507;44.858;10.374;2023-07-13T13:42:02;14.27;;;5.25;;
22679;SDS011;11507;44.858;10.374;2023-07-13T13:44:30;14.10;;;5.63;;
22679;SDS011;11507;44.858;10.374;2023-07-13T13:46:57;12.02;;;4.78;;
22679;SDS011;11507;44.858;10.374;2023-07-13T13:49:24;15.02;;;5.30;;
22679;SDS011;11507;44.858;10.374;2023-07-13T13:51:59;12.98;;;5.20;;
22679;SDS011;11507;44.858;10.374;2023-07-13T13:54:26;12.33;;;5.57;;
22679;SDS011;11507;44.858;10.374;2023-07-13T13:56:52;12.60;;;5.55;;
22679;SDS011;11507;44.858;10.374;2023-07-13T13:59:22;11.63;;;5.43;;
22679;SDS011;11507;44.858;10.374;2023-07-13T14:01:48;9.77;;;5.88;;
22679;SDS011;11507;44.858;10.374;2023-07-13T14:04:16;12.02;;;5.85;;
22679;SDS011;11507;44.858;10.374;2023-07-13T14:06:44;13.43;;;6.15;;
22679;SDS011;11507;44.858;10.374;2023-07-13T14:09:12;12.70;;;5.50;;
22679;SDS011;11507;44.858;10.374;2023-07-13T14:11:40;14.00;;;5.78;;
22679;SDS011;11507;44.858;10.374;2023-07-13T14:14:09;14.40;;;5.90;;
22679;SDS011;11507;44.858;10.374;2023-07-13T14:16:42;13.43;;;6.10;;
22679;SDS011;11507;44.858;10.374;2023-07-13T14:19:12;20.08;;;5.63;;
22679;SDS011;11507;44.858;10.374;2023-07-13T14:21:39;14.05;;;5.68;;
22679;SDS011;11507;44.858;10.374;2023-07-13T14:24:08;14.02;;;5.72;;
22679;SDS011;11507;44.858;10.374;2023-07-13T14:26:36;13.88;;;5.93;;
22679;SDS011;11507;44.858;10.374;2023-07-13T14:29:05;11.85;;;5.90;;
22679;SDS011;11507;44.858;10.374;2023-07-13T14:31:42;14.27;;;6.03;;
22679;SDS011;11507;44.858;10.374;2023-07-13T14:34:10;17.25;;;6.47;;
22679;SDS011;11507;44.858;10.374;2023-07-13T14:36:41;17.02;;;6.20;;
22679;SDS011;11507;44.858;10.374;2023-07-13T14:39:14;15.98;;;5.72;;
22679;SDS011;11507;44.858;10.374;2023-07-13T14:41:43;12.02;;;6.15;;
22679;SDS011;11507;44.858;10.374;2023-07-13T14:44:31;13.80;;;6.30;;
22679;SDS011;11507;44.858;10.374;2023-07-13T14:46:59;19.50;;;6.22;;
22679;SDS011;11507;44.858;10.374;2023-07-13T14:49:42;12.88;;;5.90;;
22679;SDS011;11507;44.858;10.374;2023-07-13T14:54:47;14.07;;;6.05;;
22679;SDS011;11507;44.858;10.374;2023-07-13T14:57:14;15.23;;;5.80;;
22679;SDS011;11507;44.858;10.374;2023-07-13T14:59:43;13.70;;;5.60;;
22679;SDS011;11507;44.858;10.374;2023-07-13T15:02:32;14.70;;;6.15;;
22679;SDS011;11507;44.858;10.374;2023-07-13T15:04:58;12.52;;;6.03;;
22679;SDS011;11507;44.858;10.374;2023-07-13T15:07:24;12.07;;;6.07;;
22679;SDS011;11507;44.858;10.374;2023-07-13T15:09:51;11.25;;;5.43;;
22679;SDS011;11507;44.858;10.374;2023-07-13T15:12:17;14.77;;;5.85;;
22679;SDS011;11507;44.858;10.374;2023-07-13T15:14:44;15.65;;;5.95;;
22679;SDS011;11507;44.858;10.374;2023-07-13T15:22:25;14.70;;;5.78;;
22679;SDS011;11507;44.858;10.374;2023-07-13T15:24:53;14.48;;;5.95;;
22679;SDS011;11507;44.858;10.374;2023-07-13T15:27:24;14.88;;;5.25;;
22679;SDS011;11507;44.858;10.374;2023-07-13T15:29:50;13.27;;;5.50;;
22679;SDS011;11507;44.858;10.374;2023-07-13T15:32:21;11.52;;;5.20;;
22679;SDS011;11507;44.858;10.374;2023-07-13T15:34:53;14.45;;;5.70;;
22679;SDS011;11507;44.858;10.374;2023-07-13T15:37:19;13.32;;;5.78;;
22679;SDS011;11507;44.858;10.374;2023-07-13T15:39:47;10.35;;;5.38;;
22679;SDS011;11507;44.858;10.374;2023-07-13T15:42:15;16.75;;;5.50;;
22679;SDS011;11507;44.858;10.374;2023-07-13T15:44:43;18.60;;;5.45;;
22679;SDS011;11507;44.858;10.374;2023-07-13T15:47:14;12.90;;;4.93;;
22679;SDS011;11507;44.858;10.374;2023-07-13T15:49:41;14.98;;;4.90;;
22679;SDS011;11507;44.858;10.374;2023-07-13T15:52:17;13.07;;;5.38;;
22679;SDS011;11507;44.858;10.374;2023-07-13T15:54:47;12.30;;;4.97;;
22679;SDS011;11507;44.858;10.374;2023-07-13T15:57:16;13.73;;;5.40;;
22679;SDS011;11507;44.858;10.374;2023-07-13T15:59:43;12.10;;;5.25;;
22679;SDS011;11507;44.858;10.374;2023-07-13T16:02:20;12.00;;;4.85;;
22679;SDS011;11507;44.858;10.374;2023-07-13T16:04:48;10.48;;;4.70;;
22679;SDS011;11507;44.858;10.374;2023-07-13T16:07:16;11.65;;;4.70;;